Airport View

Enter AWOS ICAO identifier for current METAR.

ex. KFNL

KPEO 080653Z AUTO VRB03KT 5SM BR OVC002 07/06 A2953 RMK AO2 SLP000 T00670056

8 Apr 2020 07:58

Frequency: 121.175

Phone: 315-536-4102

Other Area AWOS: KITH - KDSV - KELM - K6B9

TAF AMD KITH 080727Z 0807/0906 31004KT P6SM OVC009 TEMPO 0811/0815 SCT009 BKN025 FM081500 34005KT P6SM BKN025 FM082100 31008KT P6SM BKN035